TimeCDT,TemperatureF,Dew PointF,Humidity,Sea Level PressureIn,VisibilityMPH,Wind Direction,Wind SpeedMPH,Gust SpeedMPH,PrecipitationIn,Events,Conditions,WindDirDegrees,DateUTC
12:56 AM,53.1,51.1,93,30.11,10.0,East,9.2,-,0.01,,Overcast,80,2013-06-05 05:56:00
1:56 AM,53.1,51.1,93,30.10,10.0,ENE,9.2,-,0.00,,Overcast,70,2013-06-05 06:56:00
2:32 AM,51.8,51.8,100,30.07,7.0,ESE,10.4,-,0.00,Rain,Light Rain,110,2013-06-05 07:32:00
2:48 AM,51.8,51.8,100,30.08,7.0,ESE,10.4,18.4,0.00,Rain,Light Rain,110,2013-06-05 07:48:00
2:56 AM,52.0,51.1,97,30.08,6.0,ESE,12.7,-,0.00,Rain,Light Rain,110,2013-06-05 07:56:00
3:23 AM,51.8,50.0,94,30.06,10.0,East,9.2,-,0.00,,Overcast,100,2013-06-05 08:23:00
3:41 AM,51.8,50.0,94,30.06,10.0,ESE,10.4,-,0.00,Thunderstorm,Overcast,110,2013-06-05 08:41:00
3:56 AM,52.0,50.0,93,30.08,9.0,ESE,3.5,-,0.01,Rain,Rain,110,2013-06-05 08:56:00
4:19 AM,51.8,51.8,100,30.07,5.0,East,3.5,-,0.08,Rain-Thunderstorm,Rain,90,2013-06-05 09:19:00
4:35 AM,51.8,50.0,94,30.05,7.0,East,9.2,-,0.10,Rain-Thunderstorm,Light Thunderstorms and Rain,100,2013-06-05 09:35:00
4:48 AM,51.8,51.8,100,30.05,7.0,ENE,6.9,-,0.11,Rain-Thunderstorm,Light Rain,70,2013-06-05 09:48:00
4:56 AM,52.0,51.1,97,30.06,9.0,East,6.9,-,0.11,Rain,Light Rain,80,2013-06-05 09:56:00
5:56 AM,52.0,51.1,97,30.06,3.0,East,5.8,-,0.04,Rain,Light Rain,100,2013-06-05 10:56:00
6:07 AM,51.8,51.8,100,30.06,2.5,East,6.9,-,0.08,Rain,Heavy Rain,90,2013-06-05 11:07:00
6:40 AM,51.8,50.0,94,30.06,8.0,ESE,10.4,-,0.08,,Overcast,110,2013-06-05 11:40:00
6:56 AM,52.0,50.0,93,30.06,8.0,East,6.9,-,0.08,,Overcast,100,2013-06-05 11:56:00
7:03 AM,51.8,50.0,94,30.05,10.0,East,5.8,-,N/A,,Overcast,100,2013-06-05 12:03:00
7:13 AM,51.8,50.0,94,30.05,10.0,East,6.9,-,N/A,,Overcast,100,2013-06-05 12:13:00
7:27 AM,51.8,50.0,94,30.04,10.0,East,8.1,-,N/A,,Overcast,100,2013-06-05 12:27:00
7:34 AM,51.8,50.0,94,30.03,10.0,East,8.1,-,N/A,,Overcast,90,2013-06-05 12:34:00
7:56 AM,53.1,51.1,93,30.05,10.0,ESE,6.9,-,N/A,,Overcast,120,2013-06-05 12:56:00
8:56 AM,53.1,51.1,93,30.05,10.0,ESE,6.9,-,N/A,,Overcast,120,2013-06-05 13:56:00
9:03 AM,53.6,50.0,88,30.04,10.0,ESE,4.6,-,N/A,,Overcast,110,2013-06-05 14:03:00
9:51 AM,53.6,50.0,88,30.04,10.0,ESE,9.2,-,0.00,Rain,Light Rain,120,2013-06-05 14:51:00
9:56 AM,53.1,50.0,89,30.04,10.0,ESE,8.1,-,0.00,Rain,Light Rain,120,2013-06-05 14:56:00
10:03 AM,53.6,50.0,88,30.03,10.0,SE,9.2,-,0.00,,Overcast,130,2013-06-05 15:03:00
10:47 AM,53.6,51.8,94,30.02,8.0,ESE,8.1,-,0.01,Rain,Light Rain,120,2013-06-05 15:47:00
10:56 AM,53.1,51.1,93,30.03,10.0,ESE,6.9,-,0.01,Rain,Light Rain,110,2013-06-05 15:56:00
11:03 AM,53.6,51.8,94,30.02,10.0,ESE,9.2,-,0.00,Rain,Light Rain,120,2013-06-05 16:03:00
11:22 AM,53.6,51.8,94,30.03,10.0,ESE,6.9,-,0.00,,Overcast,110,2013-06-05 16:22:00
11:39 AM,53.6,51.8,94,30.02,10.0,ESE,11.5,-,0.00,Rain,Light Rain,120,2013-06-05 16:39:00
11:56 AM,53.1,51.1,93,30.03,8.0,ESE,8.1,-,0.00,Rain,Light Rain,110,2013-06-05 16:56:00
12:19 PM,53.6,51.8,94,30.02,10.0,ESE,5.8,-,0.00,,Overcast,120,2013-06-05 17:19:00
12:56 PM,54.0,52.0,93,30.02,10.0,ESE,8.1,-,0.00,,Overcast,120,2013-06-05 17:56:00
1:12 PM,53.6,51.8,94,30.01,10.0,ESE,8.1,-,N/A,Thunderstorm,Overcast,120,2013-06-05 18:12:00
1:27 PM,53.6,51.8,94,30.00,10.0,ESE,6.9,-,N/A,,Overcast,110,2013-06-05 18:27:00
1:56 PM,54.0,52.0,93,30.01,10.0,ESE,6.9,-,N/A,,Overcast,110,2013-06-05 18:56:00
2:56 PM,54.0,52.0,93,29.99,4.0,ESE,5.8,-,N/A,,Overcast,120,2013-06-05 19:56:00
3:28 PM,53.6,53.6,100,29.98,1.8,ESE,4.6,-,0.00,Rain,Light Rain,110,2013-06-05 20:28:00
3:43 PM,53.6,53.6,100,29.97,2.5,Calm,Calm,-,0.01,Rain,Light Rain,0,2013-06-05 20:43:00
3:51 PM,53.6,53.6,100,29.97,1.8,ENE,3.5,-,0.02,Rain,Light Rain,70,2013-06-05 20:51:00
3:56 PM,54.0,53.1,97,29.98,1.5,Calm,Calm,-,0.02,Rain,Light Rain,0,2013-06-05 20:56:00
4:38 PM,53.6,53.6,100,29.96,2.0,ESE,4.6,-,0.03,Rain,Light Rain,120,2013-06-05 21:38:00
4:56 PM,55.0,54.0,96,29.97,2.0,Calm,Calm,-,0.03,,Overcast,0,2013-06-05 21:56:00
5:14 PM,55.4,53.6,94,29.97,3.0,Calm,Calm,-,0.00,Rain,Light Rain,0,2013-06-05 22:14:00
5:31 PM,55.4,53.6,94,29.96,6.0,Calm,Calm,-,0.00,,Overcast,0,2013-06-05 22:31:00
5:56 PM,55.0,54.0,96,29.97,4.0,Calm,Calm,-,0.00,,Overcast,0,2013-06-05 22:56:00
6:09 PM,55.4,55.4,100,29.96,3.0,Calm,Calm,-,N/A,,Overcast,0,2013-06-05 23:09:00
6:28 PM,55.4,55.4,100,29.96,2.5,Calm,Calm,-,0.01,,Overcast,0,2013-06-05 23:28:00
6:56 PM,55.9,55.0,97,29.96,2.0,Calm,Calm,-,0.01,,Overcast,0,2013-06-05 23:56:00
7:56 PM,55.0,55.0,100,29.96,2.0,NNE,3.5,-,0.01,Rain,Light Rain,20,2013-06-06 00:56:00
8:05 PM,55.4,55.4,100,29.96,1.8,NNE,4.6,-,0.01,Rain,Light Rain,20,2013-06-06 01:05:00
8:13 PM,55.4,53.6,94,29.96,2.5,NNE,4.6,-,0.01,Rain,Light Rain,30,2013-06-06 01:13:00
8:21 PM,55.4,55.4,100,29.96,3.0,NE,5.8,-,0.01,Rain,Light Rain,40,2013-06-06 01:21:00
8:29 PM,55.4,55.4,100,29.95,2.5,NE,4.6,-,0.02,Rain,Light Rain,50,2013-06-06 01:29:00
8:37 PM,55.4,53.6,94,29.95,2.5,NE,6.9,-,0.02,Rain,Light Rain,50,2013-06-06 01:37:00
8:49 PM,55.4,55.4,100,29.95,3.0,ENE,6.9,-,0.03,Rain,Light Rain,60,2013-06-06 01:49:00
8:56 PM,55.0,55.0,100,29.96,4.0,ENE,4.6,-,0.03,,Overcast,60,2013-06-06 01:56:00
9:56 PM,55.0,55.0,100,29.96,4.0,ENE,5.8,-,N/A,,Overcast,70,2013-06-06 02:56:00
10:18 PM,55.4,53.6,94,29.96,3.0,ESE,9.2,-,0.01,Rain,Light Rain,120,2013-06-06 03:18:00
10:56 PM,53.1,52.0,96,29.97,4.0,ESE,10.4,-,0.01,,Overcast,110,2013-06-06 03:56:00
11:56 PM,52.0,51.1,97,29.96,9.0,East,6.9,-,N/A,,Overcast,100,2013-06-06 04:56:00